sensor_id;sensor_type;location;lat;lon;timestamp;temperature;humidity
6293;DHT22;3179;54.350;10.102;2022-08-14T00:01:13;24.20;96.80
6293;DHT22;3179;54.350;10.102;2022-08-14T00:03:40;24.10;96.90
6293;DHT22;3179;54.350;10.102;2022-08-14T00:06:07;24.10;96.70
6293;DHT22;3179;54.350;10.102;2022-08-14T00:08:34;24.10;96.70
6293;DHT22;3179;54.350;10.102;2022-08-14T00:11:01;24.10;96.80
6293;DHT22;3179;54.350;10.102;2022-08-14T00:13:28;24.10;96.70
6293;DHT22;3179;54.350;10.102;2022-08-14T00:15:56;24.10;96.80
6293;DHT22;3179;54.350;10.102;2022-08-14T00:18:26;24.00;96.80
6293;DHT22;3179;54.350;10.102;2022-08-14T00:20:54;24.00;96.90
6293;DHT22;3179;54.350;10.102;2022-08-14T00:23:21;24.00;96.80
6293;DHT22;3179;54.350;10.102;2022-08-14T00:25:50;23.90;96.80
6293;DHT22;3179;54.350;10.102;2022-08-14T00:28:17;23.90;96.90
6293;DHT22;3179;54.350;10.102;2022-08-14T00:30:46;23.90;96.90
6293;DHT22;3179;54.350;10.102;2022-08-14T00:33:16;23.80;96.90
6293;DHT22;3179;54.350;10.102;2022-08-14T00:35:44;23.80;97.00
6293;DHT22;3179;54.350;10.102;2022-08-14T00:38:11;23.80;97.00
6293;DHT22;3179;54.350;10.102;2022-08-14T00:40:38;23.70;97.00
6293;DHT22;3179;54.350;10.102;2022-08-14T00:43:05;23.70;97.10
6293;DHT22;3179;54.350;10.102;2022-08-14T00:45:32;23.70;97.10
6293;DHT22;3179;54.350;10.102;2022-08-14T00:47:59;23.60;97.20
6293;DHT22;3179;54.350;10.102;2022-08-14T00:50:26;23.60;97.20
6293;DHT22;3179;54.350;10.102;2022-08-14T00:52:57;23.60;97.50
6293;DHT22;3179;54.350;10.102;2022-08-14T00:55:26;23.50;97.30
6293;DHT22;3179;54.350;10.102;2022-08-14T00:57:53;23.50;97.30
6293;DHT22;3179;54.350;10.102;2022-08-14T01:00:34;23.40;97.30
6293;DHT22;3179;54.350;10.102;2022-08-14T01:03:02;23.40;97.40
6293;DHT22;3179;54.350;10.102;2022-08-14T01:05:29;23.30;97.50
6293;DHT22;3179;54.350;10.102;2022-08-14T01:07:57;23.30;97.50
6293;DHT22;3179;54.350;10.102;2022-08-14T01:10:26;23.30;97.60
6293;DHT22;3179;54.350;10.102;2022-08-14T01:13:14;23.20;97.70
6293;DHT22;3179;54.350;10.102;2022-08-14T01:15:42;23.10;97.80
6293;DHT22;3179;54.350;10.102;2022-08-14T01:18:09;23.10;97.90
6293;DHT22;3179;54.350;10.102;2022-08-14T01:20:54;23.10;98.00
6293;DHT22;3179;54.350;10.102;2022-08-14T01:23:36;23.00;98.10
6293;DHT22;3179;54.350;10.102;2022-08-14T01:26:05;22.90;98.30
6293;DHT22;3179;54.350;10.102;2022-08-14T01:28:33;22.90;98.30
6293;DHT22;3179;54.350;10.102;2022-08-14T01:31:03;22.80;98.40
6293;DHT22;3179;54.350;10.102;2022-08-14T01:33:35;22.80;98.50
6293;DHT22;3179;54.350;10.102;2022-08-14T01:36:06;22.70;98.60
6293;DHT22;3179;54.350;10.102;2022-08-14T01:38:36;22.70;98.70
6293;DHT22;3179;54.350;10.102;2022-08-14T01:41:05;22.60;98.70
6293;DHT22;3179;54.350;10.102;2022-08-14T01:43:41;22.60;98.80
6293;DHT22;3179;54.350;10.102;2022-08-14T01:46:08;22.60;98.90
6293;DHT22;3179;54.350;10.102;2022-08-14T01:48:38;22.60;98.90
6293;DHT22;3179;54.350;10.102;2022-08-14T01:51:09;22.60;98.90
6293;DHT22;3179;54.350;10.102;2022-08-14T01:53:39;22.60;99.00
6293;DHT22;3179;54.350;10.102;2022-08-14T01:56:06;22.50;99.10
6293;DHT22;3179;54.350;10.102;2022-08-14T01:58:33;22.50;99.10
6293;DHT22;3179;54.350;10.102;2022-08-14T02:01:00;22.50;99.10
6293;DHT22;3179;54.350;10.102;2022-08-14T02:03:29;22.50;99.10
6293;DHT22;3179;54.350;10.102;2022-08-14T02:05:57;22.50;99.20
6293;DHT22;3179;54.350;10.102;2022-08-14T02:08:24;22.50;99.20
6293;DHT22;3179;54.350;10.102;2022-08-14T02:10:57;22.50;99.10
6293;DHT22;3179;54.350;10.102;2022-08-14T02:13:44;22.50;99.20
6293;DHT22;3179;54.350;10.102;2022-08-14T02:16:12;22.50;99.20
6293;DHT22;3179;54.350;10.102;2022-08-14T02:18:41;22.50;99.10
6293;DHT22;3179;54.350;10.102;2022-08-14T02:21:08;22.50;99.20
6293;DHT22;3179;54.350;10.102;2022-08-14T02:23:37;22.50;99.20
6293;DHT22;3179;54.350;10.102;2022-08-14T02:26:15;22.50;99.20
6293;DHT22;3179;54.350;10.102;2022-08-14T02:28:43;22.50;99.50
6293;DHT22;3179;54.350;10.102;2022-08-14T02:31:11;22.50;99.10
6293;DHT22;3179;54.350;10.102;2022-08-14T02:33:38;22.50;99.20
6293;DHT22;3179;54.350;10.102;2022-08-14T02:36:07;22.50;99.20
6293;DHT22;3179;54.350;10.102;2022-08-14T02:38:34;22.50;99.30
6293;DHT22;3179;54.350;10.102;2022-08-14T02:41:02;22.50;99.30
6293;DHT22;3179;54.350;10.102;2022-08-14T02:43:31;22.50;99.30
6293;DHT22;3179;54.350;10.102;2022-08-14T02:45:58;22.50;99.40
6293;DHT22;3179;54.350;10.102;2022-08-14T02:48:25;22.50;99.50
6293;DHT22;3179;54.350;10.102;2022-08-14T02:50:57;22.50;99.50
6293;DHT22;3179;54.350;10.102;2022-08-14T02:53:24;22.50;99.60
6293;DHT22;3179;54.350;10.102;2022-08-14T02:55:51;22.50;99.70
6293;DHT22;3179;54.350;10.102;2022-08-14T02:58:18;22.50;99.70
6293;DHT22;3179;54.350;10.102;2022-08-14T03:00:49;22.60;99.90
6293;DHT22;3179;54.350;10.102;2022-08-14T03:03:16;22.60;99.90
6293;DHT22;3179;54.350;10.102;2022-08-14T03:05:44;22.60;99.90
6293;DHT22;3179;54.350;10.102;2022-08-14T03:08:13;22.60;99.90
6293;DHT22;3179;54.350;10.102;2022-08-14T03:10:39;22.60;99.90
6293;DHT22;3179;54.350;10.102;2022-08-14T03:13:06;22.60;99.90
6293;DHT22;3179;54.350;10.102;2022-08-14T03:15:35;22.60;99.90
6293;DHT22;3179;54.350;10.102;2022-08-14T03:18:09;22.60;99.90
6293;DHT22;3179;54.350;10.102;2022-08-14T03:20:36;22.70;99.90
6293;DHT22;3179;54.350;10.102;2022-08-14T03:23:02;22.70;99.90
6293;DHT22;3179;54.350;10.102;2022-08-14T03:25:30;22.60;99.90
6293;DHT22;3179;54.350;10.102;2022-08-14T03:27:57;22.60;99.90
6293;DHT22;3179;54.350;10.102;2022-08-14T03:30:29;22.60;99.90
6293;DHT22;3179;54.350;10.102;2022-08-14T03:32:56;22.60;99.90
6293;DHT22;3179;54.350;10.102;2022-08-14T03:35:25;22.50;99.90
6293;DHT22;3179;54.350;10.102;2022-08-14T03:37:52;22.50;99.90
6293;DHT22;3179;54.350;10.102;2022-08-14T03:40:19;22.50;99.90
6293;DHT22;3179;54.350;10.102;2022-08-14T03:42:47;22.50;99.90
6293;DHT22;3179;54.350;10.102;2022-08-14T03:45:13;22.50;99.90
6293;DHT22;3179;54.350;10.102;2022-08-14T03:47:40;22.50;99.90
6293;DHT22;3179;54.350;10.102;2022-08-14T03:50:09;22.50;99.90
6293;DHT22;3179;54.350;10.102;2022-08-14T03:52:37;22.50;99.90
6293;DHT22;3179;54.350;10.102;2022-08-14T03:55:06;22.50;99.90
6293;DHT22;3179;54.350;10.102;2022-08-14T03:57:33;22.50;99.90
6293;DHT22;3179;54.350;10.102;2022-08-14T04:00:00;22.50;99.90
6293;DHT22;3179;54.350;10.102;2022-08-14T04:02:31;22.40;99.90
6293;DHT22;3179;54.350;10.102;2022-08-14T04:04:57;22.40;99.90
6293;DHT22;3179;54.350;10.102;2022-08-14T04:07:24;22.40;99.90
6293;DHT22;3179;54.350;10.102;2022-08-14T04:09:52;22.40;99.90
6293;DHT22;3179;54.350;10.102;2022-08-14T04:12:19;22.40;99.90
6293;DHT22;3179;54.350;10.102;2022-08-14T04:14:46;22.40;99.90
6293;DHT22;3179;54.350;10.102;2022-08-14T04:17:13;22.40;99.90
6293;DHT22;3179;54.350;10.102;2022-08-14T04:19:40;22.40;99.90
6293;DHT22;3179;54.350;10.102;2022-08-14T04:22:06;22.40;99.90
6293;DHT22;3179;54.350;10.102;2022-08-14T04:24:33;22.40;99.90
6293;DHT22;3179;54.350;10.102;2022-08-14T04:27:04;22.50;99.90
6293;DHT22;3179;54.350;10.102;2022-08-14T04:29:31;22.40;99.90
6293;DHT22;3179;54.350;10.102;2022-08-14T04:31:58;22.40;99.90
6293;DHT22;3179;54.350;10.102;2022-08-14T04:34:25;22.50;99.90
6293;DHT22;3179;54.350;10.102;2022-08-14T04:36:52;22.50;99.90
6293;DHT22;3179;54.350;10.102;2022-08-14T04:39:36;22.50;99.90
6293;DHT22;3179;54.350;10.102;2022-08-14T04:42:21;22.50;99.90
6293;DHT22;3179;54.350;10.102;2022-08-14T04:45:06;22.60;99.90
6293;DHT22;3179;54.350;10.102;2022-08-14T04:47:33;22.50;99.90
6293;DHT22;3179;54.350;10.102;2022-08-14T04:50:17;22.50;99.90
6293;DHT22;3179;54.350;10.102;2022-08-14T04:52:44;22.50;99.90
6293;DHT22;3179;54.350;10.102;2022-08-14T04:55:13;22.60;99.90
6293;DHT22;3179;54.350;10.102;2022-08-14T04:57:42;22.60;99.90
6293;DHT22;3179;54.350;10.102;2022-08-14T05:00:09;22.60;99.90
6293;DHT22;3179;54.350;10.102;2022-08-14T05:02:38;22.60;99.90
6293;DHT22;3179;54.350;10.102;2022-08-14T05:05:05;22.60;99.90
6293;DHT22;3179;54.350;10.102;2022-08-14T05:07:33;22.60;99.90
6293;DHT22;3179;54.350;10.102;2022-08-14T05:10:00;22.70;99.90
6293;DHT22;3179;54.350;10.102;2022-08-14T05:12:27;22.60;99.90
6293;DHT22;3179;54.350;10.102;2022-08-14T05:14:57;22.70;99.90
6293;DHT22;3179;54.350;10.102;2022-08-14T05:17:24;22.70;99.90
6293;DHT22;3179;54.350;10.102;2022-08-14T05:19:51;22.70;99.90
6293;DHT22;3179;54.350;10.102;2022-08-14T05:22:18;22.70;99.90
6293;DHT22;3179;54.350;10.102;2022-08-14T05:24:46;22.70;99.90
6293;DHT22;3179;54.350;10.102;2022-08-14T05:27:13;22.70;99.90
6293;DHT22;3179;54.350;10.102;2022-08-14T05:29:45;22.70;99.90
6293;DHT22;3179;54.350;10.102;2022-08-14T05:32:13;22.70;99.90
6293;DHT22;3179;54.350;10.102;2022-08-14T05:34:40;22.70;99.90
6293;DHT22;3179;54.350;10.102;2022-08-14T05:37:06;22.80;99.90
6293;DHT22;3179;54.350;10.102;2022-08-14T05:39:33;22.80;99.90
6293;DHT22;3179;54.350;10.102;2022-08-14T05:42:00;22.80;99.90
6293;DHT22;3179;54.350;10.102;2022-08-14T05:44:27;22.80;99.90
6293;DHT22;3179;54.350;10.102;2022-08-14T05:46:54;22.80;99.90
6293;DHT22;3179;54.350;10.102;2022-08-14T05:49:22;22.90;99.90
6293;DHT22;3179;54.350;10.102;2022-08-14T05:51:49;22.90;99.90
6293;DHT22;3179;54.350;10.102;2022-08-14T05:54:15;22.90;99.90
6293;DHT22;3179;54.350;10.102;2022-08-14T05:56:42;22.90;99.90
6293;DHT22;3179;54.350;10.102;2022-08-14T05:59:09;22.90;99.90
6293;DHT22;3179;54.350;10.102;2022-08-14T06:01:36;22.90;99.90
6293;DHT22;3179;54.350;10.102;2022-08-14T06:04:03;22.90;99.90
6293;DHT22;3179;54.350;10.102;2022-08-14T06:06:31;22.90;99.90
6293;DHT22;3179;54.350;10.102;2022-08-14T06:08:58;23.00;99.90
6293;DHT22;3179;54.350;10.102;2022-08-14T06:11:25;23.00;99.90
6293;DHT22;3179;54.350;10.102;2022-08-14T06:13:52;23.10;99.90
6293;DHT22;3179;54.350;10.102;2022-08-14T06:16:18;23.10;99.90
6293;DHT22;3179;54.350;10.102;2022-08-14T06:18:46;23.10;99.90
6293;DHT22;3179;54.350;10.102;2022-08-14T06:21:13;23.10;99.90
6293;DHT22;3179;54.350;10.102;2022-08-14T06:23:42;23.10;99.90
6293;DHT22;3179;54.350;10.102;2022-08-14T06:26:09;23.20;99.90
6293;DHT22;3179;54.350;10.102;2022-08-14T06:28:36;23.20;99.90
6293;DHT22;3179;54.350;10.102;2022-08-14T06:31:03;23.20;99.90
6293;DHT22;3179;54.350;10.102;2022-08-14T06:33:30;23.30;99.90
6293;DHT22;3179;54.350;10.102;2022-08-14T06:35:57;23.30;99.90
6293;DHT22;3179;54.350;10.102;2022-08-14T06:38:24;23.30;99.90
6293;DHT22;3179;54.350;10.102;2022-08-14T06:40:52;23.30;99.90
6293;DHT22;3179;54.350;10.102;2022-08-14T06:43:19;23.40;99.90
6293;DHT22;3179;54.350;10.102;2022-08-14T06:45:47;23.40;99.90
6293;DHT22;3179;54.350;10.102;2022-08-14T06:48:16;23.40;99.90
6293;DHT22;3179;54.350;10.102;2022-08-14T06:50:43;23.50;99.90
6293;DHT22;3179;54.350;10.102;2022-08-14T06:53:10;23.50;99.90
6293;DHT22;3179;54.350;10.102;2022-08-14T06:55:39;23.60;99.90
6293;DHT22;3179;54.350;10.102;2022-08-14T06:58:10;23.60;99.90
6293;DHT22;3179;54.350;10.102;2022-08-14T07:00:37;23.70;99.90
6293;DHT22;3179;54.350;10.102;2022-08-14T07:03:04;23.70;99.90
6293;DHT22;3179;54.350;10.102;2022-08-14T07:05:48;23.70;99.90
6293;DHT22;3179;54.350;10.102;2022-08-14T07:08:17;23.80;99.90
6293;DHT22;3179;54.350;10.102;2022-08-14T07:10:44;23.80;99.90
6293;DHT22;3179;54.350;10.102;2022-08-14T07:13:13;23.80;99.90
6293;DHT22;3179;54.350;10.102;2022-08-14T07:15:40;23.80;99.90
6293;DHT22;3179;54.350;10.102;2022-08-14T07:18:08;23.90;99.90
6293;DHT22;3179;54.350;10.102;2022-08-14T07:20:35;23.90;99.90
6293;DHT22;3179;54.350;10.102;2022-08-14T07:23:04;24.00;99.90
6293;DHT22;3179;54.350;10.102;2022-08-14T07:25:31;24.00;99.90
6293;DHT22;3179;54.350;10.102;2022-08-14T07:27:58;24.00;99.90
6293;DHT22;3179;54.350;10.102;2022-08-14T07:30:26;24.00;99.90
6293;DHT22;3179;54.350;10.102;2022-08-14T07:32:53;24.10;99.90
6293;DHT22;3179;54.350;10.102;2022-08-14T07:35:19;24.10;99.90
6293;DHT22;3179;54.350;10.102;2022-08-14T07:37:47;24.20;99.90
6293;DHT22;3179;54.350;10.102;2022-08-14T07:40:14;24.20;99.90
6293;DHT22;3179;54.350;10.102;2022-08-14T07:42:42;24.20;99.90
6293;DHT22;3179;54.350;10.102;2022-08-14T07:45:10;24.30;99.90
6293;DHT22;3179;54.350;10.102;2022-08-14T07:47:42;24.30;99.90
6293;DHT22;3179;54.350;10.102;2022-08-14T07:50:12;24.30;99.90
6293;DHT22;3179;54.350;10.102;2022-08-14T07:52:40;24.40;99.90
6293;DHT22;3179;54.350;10.102;2022-08-14T07:55:08;24.40;99.90
6293;DHT22;3179;54.350;10.102;2022-08-14T07:57:35;24.40;99.90
6293;DHT22;3179;54.350;10.102;2022-08-14T08:00:06;24.50;99.90
6293;DHT22;3179;54.350;10.102;2022-08-14T08:02:38;24.50;99.90
6293;DHT22;3179;54.350;10.102;2022-08-14T08:05:07;24.60;99.90
6293;DHT22;3179;54.350;10.102;2022-08-14T08:07:36;24.70;99.90
6293;DHT22;3179;54.350;10.102;2022-08-14T08:10:06;24.70;99.90
6293;DHT22;3179;54.350;10.102;2022-08-14T08:12:54;24.70;99.90
6293;DHT22;3179;54.350;10.102;2022-08-14T08:15:22;24.80;99.90
6293;DHT22;3179;54.350;10.102;2022-08-14T08:17:49;24.80;99.90
6293;DHT22;3179;54.350;10.102;2022-08-14T08:20:19;24.80;99.90
6293;DHT22;3179;54.350;10.102;2022-08-14T08:22:47;24.90;99.90
6293;DHT22;3179;54.350;10.102;2022-08-14T08:25:15;24.90;99.90
6293;DHT22;3179;54.350;10.102;2022-08-14T08:27:53;25.00;99.90
6293;DHT22;3179;54.350;10.102;2022-08-14T08:30:20;25.00;99.90
6293;DHT22;3179;54.350;10.102;2022-08-14T08:32:49;25.00;99.90
6293;DHT22;3179;54.350;10.102;2022-08-14T08:35:19;25.10;99.90
6293;DHT22;3179;54.350;10.102;2022-08-14T08:37:47;25.20;99.90
6293;DHT22;3179;54.350;10.102;2022-08-14T08:40:24;25.20;99.90
6293;DHT22;3179;54.350;10.102;2022-08-14T08:42:51;25.20;99.90
6293;DHT22;3179;54.350;10.102;2022-08-14T08:45:19;25.20;99.90
6293;DHT22;3179;54.350;10.102;2022-08-14T08:47:47;25.20;99.90
6293;DHT22;3179;54.350;10.102;2022-08-14T08:50:18;25.30;99.90
6293;DHT22;3179;54.350;10.102;2022-08-14T08:52:49;25.30;99.90
6293;DHT22;3179;54.350;10.102;2022-08-14T08:55:24;25.40;99.90
6293;DHT22;3179;54.350;10.102;2022-08-14T08:57:55;25.40;99.90
6293;DHT22;3179;54.350;10.102;2022-08-14T09:00:23;25.40;99.90
6293;DHT22;3179;54.350;10.102;2022-08-14T09:02:54;25.40;99.90
6293;DHT22;3179;54.350;10.102;2022-08-14T09:05:24;25.40;99.90
6293;DHT22;3179;54.350;10.102;2022-08-14T09:07:51;25.40;99.90
6293;DHT22;3179;54.350;10.102;2022-08-14T09:10:18;25.40;99.90
6293;DHT22;3179;54.350;10.102;2022-08-14T09:12:46;25.40;99.90
6293;DHT22;3179;54.350;10.102;2022-08-14T09:15:13;25.50;99.90
6293;DHT22;3179;54.350;10.102;2022-08-14T09:17:41;25.50;99.90
6293;DHT22;3179;54.350;10.102;2022-08-14T09:20:09;25.50;99.90
6293;DHT22;3179;54.350;10.102;2022-08-14T09:22:43;25.60;99.90
6293;DHT22;3179;54.350;10.102;2022-08-14T09:25:12;25.60;99.90
6293;DHT22;3179;54.350;10.102;2022-08-14T09:27:39;25.60;99.90
6293;DHT22;3179;54.350;10.102;2022-08-14T09:30:07;25.70;99.90
6293;DHT22;3179;54.350;10.102;2022-08-14T09:32:40;25.70;99.90
6293;DHT22;3179;54.350;10.102;2022-08-14T09:35:15;25.70;99.90
6293;DHT22;3179;54.350;10.102;2022-08-14T09:37:52;25.70;99.90
6293;DHT22;3179;54.350;10.102;2022-08-14T09:40:29;25.80;99.90
6293;DHT22;3179;54.350;10.102;2022-08-14T09:43:08;25.80;99.90
6293;DHT22;3179;54.350;10.102;2022-08-14T09:45:44;25.80;99.90
6293;DHT22;3179;54.350;10.102;2022-08-14T09:48:15;25.90;99.90
6293;DHT22;3179;54.350;10.102;2022-08-14T09:50:45;25.90;99.90
6293;DHT22;3179;54.350;10.102;2022-08-14T09:53:31;26.00;99.90
6293;DHT22;3179;54.350;10.102;2022-08-14T09:56:00;26.10;99.90
6293;DHT22;3179;54.350;10.102;2022-08-14T09:58:36;26.20;99.90
6293;DHT22;3179;54.350;10.102;2022-08-14T10:01:10;26.20;99.90
6293;DHT22;3179;54.350;10.102;2022-08-14T10:03:46;26.30;99.90
6293;DHT22;3179;54.350;10.102;2022-08-14T10:06:16;26.30;99.90
6293;DHT22;3179;54.350;10.102;2022-08-14T10:08:46;26.30;99.90
6293;DHT22;3179;54.350;10.102;2022-08-14T10:11:17;26.30;99.90
6293;DHT22;3179;54.350;10.102;2022-08-14T10:13:46;26.40;99.90
6293;DHT22;3179;54.350;10.102;2022-08-14T10:16:14;26.40;99.90
6293;DHT22;3179;54.350;10.102;2022-08-14T10:18:41;26.40;99.90
6293;DHT22;3179;54.350;10.102;2022-08-14T10:21:11;26.40;99.90
6293;DHT22;3179;54.350;10.102;2022-08-14T10:23:45;26.40;99.90
6293;DHT22;3179;54.350;10.102;2022-08-14T10:26:15;26.50;99.90
6293;DHT22;3179;54.350;10.102;2022-08-14T10:28:44;26.50;99.90
6293;DHT22;3179;54.350;10.102;2022-08-14T10:31:20;26.60;99.90
6293;DHT22;3179;54.350;10.102;2022-08-14T10:33:58;26.70;99.50
6293;DHT22;3179;54.350;10.102;2022-08-14T10:36:26;26.60;99.30
6293;DHT22;3179;54.350;10.102;2022-08-14T10:38:59;26.60;99.50
6293;DHT22;3179;54.350;10.102;2022-08-14T10:41:35;26.60;99.30
6293;DHT22;3179;54.350;10.102;2022-08-14T10:44:07;26.70;99.00
6293;DHT22;3179;54.350;10.102;2022-08-14T10:46:39;26.70;99.20
6293;DHT22;3179;54.350;10.102;2022-08-14T10:49:16;26.80;99.10
6293;DHT22;3179;54.350;10.102;2022-08-14T10:51:55;26.70;98.50
6293;DHT22;3179;54.350;10.102;2022-08-14T10:54:37;26.80;98.70
6293;DHT22;3179;54.350;10.102;2022-08-14T10:57:16;26.80;98.80
6293;DHT22;3179;54.350;10.102;2022-08-14T10:59:46;26.80;98.70
6293;DHT22;3179;54.350;10.102;2022-08-14T11:02:18;26.80;98.90
6293;DHT22;3179;54.350;10.102;2022-08-14T11:05:00;26.80;98.80
6293;DHT22;3179;54.350;10.102;2022-08-14T11:07:28;26.80;98.60
6293;DHT22;3179;54.350;10.102;2022-08-14T11:09:58;26.70;98.90
6293;DHT22;3179;54.350;10.102;2022-08-14T11:12:37;26.70;98.90
6293;DHT22;3179;54.350;10.102;2022-08-14T11:15:05;26.70;99.10
6293;DHT22;3179;54.350;10.102;2022-08-14T11:17:33;26.70;99.10
6293;DHT22;3179;54.350;10.102;2022-08-14T11:20:03;26.70;99.20
6293;DHT22;3179;54.350;10.102;2022-08-14T11:22:31;26.70;99.30
6293;DHT22;3179;54.350;10.102;2022-08-14T11:25:02;26.60;99.40
6293;DHT22;3179;54.350;10.102;2022-08-14T11:27:30;26.70;99.50
6293;DHT22;3179;54.350;10.102;2022-08-14T11:30:00;26.60;99.40
6293;DHT22;3179;54.350;10.102;2022-08-14T11:32:28;26.70;99.50
6293;DHT22;3179;54.350;10.102;2022-08-14T11:34:55;26.60;99.50
6293;DHT22;3179;54.350;10.102;2022-08-14T11:37:22;26.60;99.50
6293;DHT22;3179;54.350;10.102;2022-08-14T11:39:49;26.60;99.40
6293;DHT22;3179;54.350;10.102;2022-08-14T11:42:22;26.60;99.50
6293;DHT22;3179;54.350;10.102;2022-08-14T11:44:50;26.50;99.50
6293;DHT22;3179;54.350;10.102;2022-08-14T11:47:18;26.50;99.50
6293;DHT22;3179;54.350;10.102;2022-08-14T11:49:45;26.50;99.50
6293;DHT22;3179;54.350;10.102;2022-08-14T11:52:13;26.50;99.40
6293;DHT22;3179;54.350;10.102;2022-08-14T11:54:40;26.50;99.40
6293;DHT22;3179;54.350;10.102;2022-08-14T11:57:13;26.50;99.40
6293;DHT22;3179;54.350;10.102;2022-08-14T11:59:42;26.50;99.40
6293;DHT22;3179;54.350;10.102;2022-08-14T12:02:10;26.50;99.40
6293;DHT22;3179;54.350;10.102;2022-08-14T12:04:47;26.60;99.30
6293;DHT22;3179;54.350;10.102;2022-08-14T12:07:14;26.60;99.20
6293;DHT22;3179;54.350;10.102;2022-08-14T12:09:43;26.60;99.30
6293;DHT22;3179;54.350;10.102;2022-08-14T12:12:14;26.50;99.10
6293;DHT22;3179;54.350;10.102;2022-08-14T12:14:49;26.60;99.10
6293;DHT22;3179;54.350;10.102;2022-08-14T12:17:18;26.50;99.00
6293;DHT22;3179;54.350;10.102;2022-08-14T12:19:51;26.60;99.10
6293;DHT22;3179;54.350;10.102;2022-08-14T12:22:19;26.50;98.90
6293;DHT22;3179;54.350;10.102;2022-08-14T12:24:49;26.50;99.30
6293;DHT22;3179;54.350;10.102;2022-08-14T12:27:16;26.60;99.10
6293;DHT22;3179;54.350;10.102;2022-08-14T12:29:53;26.60;99.20
6293;DHT22;3179;54.350;10.102;2022-08-14T12:32:19;26.70;99.30
6293;DHT22;3179;54.350;10.102;2022-08-14T12:34:52;26.80;99.30
6293;DHT22;3179;54.350;10.102;2022-08-14T12:37:28;26.80;99.30
6293;DHT22;3179;54.350;10.102;2022-08-14T12:40:08;26.80;99.20
6293;DHT22;3179;54.350;10.102;2022-08-14T12:42:35;26.80;99.20
6293;DHT22;3179;54.350;10.102;2022-08-14T12:45:04;26.80;99.50
6293;DHT22;3179;54.350;10.102;2022-08-14T12:47:33;26.80;99.30
6293;DHT22;3179;54.350;10.102;2022-08-14T12:49:59;26.80;99.40
6293;DHT22;3179;54.350;10.102;2022-08-14T12:52:27;26.90;99.40
6293;DHT22;3179;54.350;10.102;2022-08-14T12:54:57;26.90;99.40
6293;DHT22;3179;54.350;10.102;2022-08-14T12:57:33;26.80;99.30
6293;DHT22;3179;54.350;10.102;2022-08-14T13:00:11;26.80;99.30
6293;DHT22;3179;54.350;10.102;2022-08-14T13:02:39;26.80;99.40
6293;DHT22;3179;54.350;10.102;2022-08-14T13:05:07;26.80;99.70
6293;DHT22;3179;54.350;10.102;2022-08-14T13:07:35;26.70;99.50
6293;DHT22;3179;54.350;10.102;2022-08-14T13:10:05;26.70;99.50
6293;DHT22;3179;54.350;10.102;2022-08-14T13:12:33;26.70;99.50
6293;DHT22;3179;54.350;10.102;2022-08-14T13:15:08;26.80;99.60
6293;DHT22;3179;54.350;10.102;2022-08-14T13:17:40;26.90;99.50
6293;DHT22;3179;54.350;10.102;2022-08-14T13:20:08;26.90;99.60
6293;DHT22;3179;54.350;10.102;2022-08-14T13:22:36;26.90;99.60
6293;DHT22;3179;54.350;10.102;2022-08-14T13:25:05;27.10;99.60
6293;DHT22;3179;54.350;10.102;2022-08-14T13:27:32;27.10;99.60
6293;DHT22;3179;54.350;10.102;2022-08-14T13:30:03;27.10;99.50
6293;DHT22;3179;54.350;10.102;2022-08-14T13:32:32;27.20;99.50
6293;DHT22;3179;54.350;10.102;2022-08-14T13:35:04;27.20;99.50
6293;DHT22;3179;54.350;10.102;2022-08-14T13:37:31;27.10;99.40
6293;DHT22;3179;54.350;10.102;2022-08-14T13:39:58;27.10;99.40
6293;DHT22;3179;54.350;10.102;2022-08-14T13:42:26;27.10;99.40
6293;DHT22;3179;54.350;10.102;2022-08-14T13:44:55;27.10;99.50
6293;DHT22;3179;54.350;10.102;2022-08-14T13:47:23;27.00;99.50
6293;DHT22;3179;54.350;10.102;2022-08-14T13:49:56;27.00;99.50
6293;DHT22;3179;54.350;10.102;2022-08-14T13:52:29;27.00;99.50
6293;DHT22;3179;54.350;10.102;2022-08-14T13:55:02;27.00;99.50
6293;DHT22;3179;54.350;10.102;2022-08-14T13:57:31;27.00;99.50
6293;DHT22;3179;54.350;10.102;2022-08-14T14:00:00;27.00;99.50
6293;DHT22;3179;54.350;10.102;2022-08-14T14:02:30;26.90;99.50
6293;DHT22;3179;54.350;10.102;2022-08-14T14:05:00;26.90;99.50
6293;DHT22;3179;54.350;10.102;2022-08-14T14:07:30;26.80;99.50
6293;DHT22;3179;54.350;10.102;2022-08-14T14:10:00;26.80;99.50
6293;DHT22;3179;54.350;10.102;2022-08-14T14:12:28;26.80;99.50
6293;DHT22;3179;54.350;10.102;2022-08-14T14:14:55;26.80;99.50
6293;DHT22;3179;54.350;10.102;2022-08-14T14:17:23;26.80;99.60
6293;DHT22;3179;54.350;10.102;2022-08-14T14:19:51;26.80;99.60
6293;DHT22;3179;54.350;10.102;2022-08-14T14:22:19;26.80;99.60
6293;DHT22;3179;54.350;10.102;2022-08-14T14:24:46;26.80;99.60
6293;DHT22;3179;54.350;10.102;2022-08-14T14:27:13;26.80;99.60
6293;DHT22;3179;54.350;10.102;2022-08-14T14:29:42;26.80;99.70
6293;DHT22;3179;54.350;10.102;2022-08-14T14:32:11;26.80;99.60
6293;DHT22;3179;54.350;10.102;2022-08-14T14:34:38;26.90;99.60
6293;DHT22;3179;54.350;10.102;2022-08-14T14:37:10;26.90;99.60
6293;DHT22;3179;54.350;10.102;2022-08-14T14:39:39;26.90;99.60
6293;DHT22;3179;54.350;10.102;2022-08-14T14:42:06;26.90;99.60
6293;DHT22;3179;54.350;10.102;2022-08-14T14:44:36;27.00;99.60
6293;DHT22;3179;54.350;10.102;2022-08-14T14:47:07;27.00;99.60
6293;DHT22;3179;54.350;10.102;2022-08-14T14:49:35;27.10;99.60
6293;DHT22;3179;54.350;10.102;2022-08-14T14:52:04;27.30;99.60
6293;DHT22;3179;54.350;10.102;2022-08-14T14:54:31;27.30;99.50
6293;DHT22;3179;54.350;10.102;2022-08-14T14:57:01;27.50;99.40
6293;DHT22;3179;54.350;10.102;2022-08-14T14:59:29;27.50;99.40
6293;DHT22;3179;54.350;10.102;2022-08-14T15:01:59;27.50;99.30
6293;DHT22;3179;54.350;10.102;2022-08-14T15:04:26;27.50;99.20
6293;DHT22;3179;54.350;10.102;2022-08-14T15:06:52;27.40;99.20
6293;DHT22;3179;54.350;10.102;2022-08-14T15:09:20;27.40;99.10
6293;DHT22;3179;54.350;10.102;2022-08-14T15:11:47;27.30;99.10
6293;DHT22;3179;54.350;10.102;2022-08-14T15:14:15;27.20;99.10
6293;DHT22;3179;54.350;10.102;2022-08-14T15:16:42;27.20;99.10
6293;DHT22;3179;54.350;10.102;2022-08-14T15:19:09;27.10;99.10
6293;DHT22;3179;54.350;10.102;2022-08-14T15:21:36;27.10;99.20
6293;DHT22;3179;54.350;10.102;2022-08-14T15:24:04;27.10;99.20
6293;DHT22;3179;54.350;10.102;2022-08-14T15:26:30;27.10;99.20
6293;DHT22;3179;54.350;10.102;2022-08-14T15:28:58;27.00;98.90
6293;DHT22;3179;54.350;10.102;2022-08-14T15:31:27;27.00;98.90
6293;DHT22;3179;54.350;10.102;2022-08-14T15:33:53;26.90;98.80
6293;DHT22;3179;54.350;10.102;2022-08-14T15:36:40;26.80;98.80
6293;DHT22;3179;54.350;10.102;2022-08-14T15:39:09;26.80;98.80
6293;DHT22;3179;54.350;10.102;2022-08-14T15:41:36;26.80;98.90
6293;DHT22;3179;54.350;10.102;2022-08-14T15:44:03;26.80;98.90
6293;DHT22;3179;54.350;10.102;2022-08-14T15:46:31;26.80;98.80
6293;DHT22;3179;54.350;10.102;2022-08-14T15:48:58;26.80;98.70
6293;DHT22;3179;54.350;10.102;2022-08-14T15:51:25;26.80;98.70
6293;DHT22;3179;54.350;10.102;2022-08-14T15:53:52;26.80;98.60
6293;DHT22;3179;54.350;10.102;2022-08-14T15:56:19;26.70;98.60
6293;DHT22;3179;54.350;10.102;2022-08-14T15:58:46;26.70;98.60